Terminal Aerodrome Forecast
Issued by NWS

Home | Current Version | Previous Version | Text Only | Print | Product List | Glossary On
Versions: 1 2 3 4 5 6 7 8 9 10 11 12 13 14 15 16 17 18
000
FTPA31 PHFO 162320
TAFHJR
TAF
PHJR 162320Z 1700/1724 21010KT P6SM VCSH FEW025 BKN040
     FM170300 29010KT P6SM VCSH SCT025 BKN040
     FM170600 05003KT P6SM VCSH FEW025 SCT045
     FM172000 20010KT P6SM FEW030 SCT050=

USA.gov is the U.S. government's official web portal to all federal, state and local government web resources and services.